Skip Navigation Links
NOAA logo - Click to go to the NOAA homepage
NOAA's National Weather Service
Alaska Aviation Weather Unit
  NWS logo - Click to go to the NWS homepage
Left Navbar Graphic     02 AKDT = 10 GMT

   
NOAA is celebrating 200 years of science, service, and stewardship. Visit the NOAA 200th celebration Web site to learn more.
USA.gov is the U.S. Government's official Web portal to all Federal, state and local government Web resources and services.
Facebook
NWS on Facebook

AAWU Home :: Display TAF Add Bookmark
TAF PAOM 270520Z 2706/2806 VRB03KT P6SM SKC=
METAR PAOM 270453Z 00000KT 10SM CLR M15/M18 A2991=

METAR PAOM 270553Z 00000KT 10SM CLR M17/M19 A2990=

METAR PAOM 270653Z 00000KT 10SM CLR M19/M22 A2990=

METAR PAOM 270753Z AUTO 00000KT 10SM CLR M19/M22 A2989=

METAR PAOM 270853Z 00000KT 10SM FEW080 SCT180 M19/M22 A2989=

METAR PAOM 270953Z 00000KT 10SM FEW080 SCT180 M21/M23 A2988=


NOAA's National Weather Service
Alaska Aviation Weather Unit
6930 Sand Lake Road
Anchorage, AK 99502-1845
Disclaimer
Credits
Glossary
Privacy Policy
About Us
Career Opportunities
Contact AAWU Internet Services Site last modified: April, 17th 2012